0F2

Bowie Municipal Airport

Bowie, Texas, USA
METAR K0F2 251855Z AUTO 20008G14KT 10SM SCT044 BKN050 30/19 A2993 RMK AO2 T03040191
Observed Flight Rules
Sep-25 @ 18:55 UTC (8 minutes ago) Visual Flight Rules
Wind Visibility Clouds
200° at 8 knots
 Gusting to 14 knots
10 miles
  • Scattered at 4,400' AGL
  • Broken at 5,000' AGL
Temperatures Readings
Current 30°C / 86°F
Dewpoint 19°C / 66°F
Humidity 52%
Altimeter 29.93" Hg
Pressure 1014 hPa
Elevation 336
METAR K0F2 251855Z AUTO 20008G14KT 10SM SCT044 BKN050 30/19 A2993 RMK AO2 T03040191
Observed Flight Rules
Sep-25 @ 18:55 UTC
(8 minutes ago)
VFR
Wind Visibility
200° at 8 knots
 Gusting to 14 knots
10 miles
Clouds
  • Scattered at 4,400' AGL
  • Broken at 5,000' AGL
Temperature Dewpoint
30°C / 86°F 19°C / 66°F
Humidity Altimeter Pressure
52% 29.93" Hg 1014 hPa